sensor_id;sensor_type;location;lat;lon;timestamp;P1;durP1;ratioP1;P2;durP2;ratioP2
34541;SDS011;20784;51.332;12.410;2023-10-08T00:07:53;6.63;;;3.03;;
34541;SDS011;20784;51.332;12.410;2023-10-08T00:11:14;7.82;;;3.67;;
34541;SDS011;20784;51.332;12.410;2023-10-08T00:17:55;10.77;;;3.75;;
34541;SDS011;20784;51.332;12.410;2023-10-08T00:21:50;9.25;;;3.90;;
34541;SDS011;20784;51.332;12.410;2023-10-08T00:25:02;8.75;;;3.83;;
34541;SDS011;20784;51.332;12.410;2023-10-08T00:28:17;9.10;;;3.45;;
34541;SDS011;20784;51.332;12.410;2023-10-08T00:38:22;10.77;;;4.97;;
34541;SDS011;20784;51.332;12.410;2023-10-08T00:41:00;10.75;;;4.07;;
34541;SDS011;20784;51.332;12.410;2023-10-08T00:47:53;11.10;;;4.20;;
34541;SDS011;20784;51.332;12.410;2023-10-08T00:50:43;11.02;;;3.90;;
34541;SDS011;20784;51.332;12.410;2023-10-08T01:00:59;11.70;;;4.43;;
34541;SDS011;20784;51.332;12.410;2023-10-08T01:18:06;11.63;;;4.85;;
34541;SDS011;20784;51.332;12.410;2023-10-08T02:23:21;0.22;;;0.22;;
34541;SDS011;20784;51.332;12.410;2023-10-08T02:33:13;0.40;;;0.20;;
34541;SDS011;20784;51.332;12.410;2023-10-08T02:56:54;0.63;;;0.40;;
34541;SDS011;20784;51.332;12.410;2023-10-08T03:21:09;0.38;;;0.38;;
34541;SDS011;20784;51.332;12.410;2023-10-08T03:24:27;0.70;;;0.65;;
34541;SDS011;20784;51.332;12.410;2023-10-08T03:33:58;0.50;;;0.50;;
34541;SDS011;20784;51.332;12.410;2023-10-08T03:37:20;0.60;;;0.60;;
34541;SDS011;20784;51.332;12.410;2023-10-08T04:07:00;0.30;;;0.30;;
34541;SDS011;20784;51.332;12.410;2023-10-08T04:16:43;0.70;;;0.50;;
34541;SDS011;20784;51.332;12.410;2023-10-08T04:30:39;0.30;;;0.30;;
34541;SDS011;20784;51.332;12.410;2023-10-08T05:51:10;1.42;;;0.80;;
34541;SDS011;20784;51.332;12.410;2023-10-08T06:37:17;2.55;;;1.00;;
34541;SDS011;20784;51.332;12.410;2023-10-08T06:43:13;2.30;;;1.08;;
34541;SDS011;20784;51.332;12.410;2023-10-08T06:46:20;4.30;;;1.38;;
34541;SDS011;20784;51.332;12.410;2023-10-08T06:52:21;2.88;;;1.30;;
34541;SDS011;20784;51.332;12.410;2023-10-08T06:55:09;5.93;;;1.73;;
34541;SDS011;20784;51.332;12.410;2023-10-08T06:58:39;2.58;;;1.95;;
34541;SDS011;20784;51.332;12.410;2023-10-08T07:05:18;3.72;;;2.47;;
34541;SDS011;20784;51.332;12.410;2023-10-08T07:14:53;6.22;;;2.60;;
34541;SDS011;20784;51.332;12.410;2023-10-08T07:17:57;6.40;;;2.03;;
34541;SDS011;20784;51.332;12.410;2023-10-08T07:20:33;5.90;;;1.88;;
34541;SDS011;20784;51.332;12.410;2023-10-08T07:23:24;5.25;;;1.90;;
34541;SDS011;20784;51.332;12.410;2023-10-08T07:29:38;6.50;;;1.60;;
34541;SDS011;20784;51.332;12.410;2023-10-08T07:32:27;8.90;;;1.70;;
34541;SDS011;20784;51.332;12.410;2023-10-08T07:35:19;5.03;;;1.30;;
34541;SDS011;20784;51.332;12.410;2023-10-08T07:38:26;3.33;;;1.15;;
34541;SDS011;20784;51.332;12.410;2023-10-08T07:41:14;4.93;;;1.35;;
34541;SDS011;20784;51.332;12.410;2023-10-08T07:43:58;3.63;;;1.98;;
34541;SDS011;20784;51.332;12.410;2023-10-08T07:53:27;5.22;;;1.40;;
34541;SDS011;20784;51.332;12.410;2023-10-08T07:56:05;4.10;;;1.33;;
34541;SDS011;20784;51.332;12.410;2023-10-08T07:59:05;7.57;;;1.67;;
34541;SDS011;20784;51.332;12.410;2023-10-08T08:01:54;5.45;;;1.35;;
34541;SDS011;20784;51.332;12.410;2023-10-08T08:04:20;5.88;;;1.60;;
34541;SDS011;20784;51.332;12.410;2023-10-08T08:07:25;6.40;;;1.50;;
34541;SDS011;20784;51.332;12.410;2023-10-08T08:09:57;6.57;;;1.90;;
34541;SDS011;20784;51.332;12.410;2023-10-08T08:12:39;5.38;;;1.85;;
34541;SDS011;20784;51.332;12.410;2023-10-08T08:15:28;4.25;;;1.23;;
34541;SDS011;20784;51.332;12.410;2023-10-08T08:18:10;5.50;;;1.65;;
34541;SDS011;20784;51.332;12.410;2023-10-08T08:21:08;5.20;;;1.67;;
34541;SDS011;20784;51.332;12.410;2023-10-08T08:23:58;11.07;;;3.17;;
34541;SDS011;20784;51.332;12.410;2023-10-08T08:26:37;4.80;;;1.45;;
34541;SDS011;20784;51.332;12.410;2023-10-08T08:29:27;4.65;;;1.75;;
34541;SDS011;20784;51.332;12.410;2023-10-08T08:42:30;5.20;;;1.83;;
34541;SDS011;20784;51.332;12.410;2023-10-08T08:48:34;4.07;;;1.70;;
34541;SDS011;20784;51.332;12.410;2023-10-08T08:51:23;5.03;;;1.90;;
34541;SDS011;20784;51.332;12.410;2023-10-08T08:54:17;3.72;;;1.90;;
34541;SDS011;20784;51.332;12.410;2023-10-08T08:57:05;5.32;;;2.15;;
34541;SDS011;20784;51.332;12.410;2023-10-08T08:59:55;4.00;;;1.70;;
34541;SDS011;20784;51.332;12.410;2023-10-08T09:03:20;6.10;;;1.92;;
34541;SDS011;20784;51.332;12.410;2023-10-08T09:06:09;4.65;;;2.33;;
34541;SDS011;20784;51.332;12.410;2023-10-08T09:09:10;7.60;;;1.95;;
34541;SDS011;20784;51.332;12.410;2023-10-08T09:12:02;6.38;;;2.08;;
34541;SDS011;20784;51.332;12.410;2023-10-08T09:14:59;4.07;;;1.95;;
34541;SDS011;20784;51.332;12.410;2023-10-08T09:17:45;6.28;;;1.95;;
34541;SDS011;20784;51.332;12.410;2023-10-08T09:20:28;6.47;;;2.20;;
34541;SDS011;20784;51.332;12.410;2023-10-08T09:23:18;6.05;;;2.20;;
34541;SDS011;20784;51.332;12.410;2023-10-08T09:26:26;3.55;;;1.65;;
34541;SDS011;20784;51.332;12.410;2023-10-08T09:29:04;5.43;;;2.17;;
34541;SDS011;20784;51.332;12.410;2023-10-08T09:32:07;6.25;;;2.17;;
34541;SDS011;20784;51.332;12.410;2023-10-08T09:35:03;5.82;;;1.77;;
34541;SDS011;20784;51.332;12.410;2023-10-08T09:37:44;8.02;;;2.20;;
34541;SDS011;20784;51.332;12.410;2023-10-08T09:40:20;5.00;;;2.30;;
34541;SDS011;20784;51.332;12.410;2023-10-08T09:43:04;8.73;;;2.65;;
34541;SDS011;20784;51.332;12.410;2023-10-08T09:45:47;8.48;;;3.63;;
34541;SDS011;20784;51.332;12.410;2023-10-08T09:48:36;6.05;;;2.67;;
34541;SDS011;20784;51.332;12.410;2023-10-08T09:51:13;4.65;;;2.65;;
34541;SDS011;20784;51.332;12.410;2023-10-08T10:05:49;8.15;;;3.28;;
34541;SDS011;20784;51.332;12.410;2023-10-08T10:12:57;7.78;;;3.70;;
34541;SDS011;20784;51.332;12.410;2023-10-08T10:22:26;9.02;;;4.55;;
34541;SDS011;20784;51.332;12.410;2023-10-08T10:25:47;6.05;;;3.63;;
34541;SDS011;20784;51.332;12.410;2023-10-08T10:32:16;11.52;;;5.18;;
34541;SDS011;20784;51.332;12.410;2023-10-08T10:45:03;6.13;;;3.70;;
34541;SDS011;20784;51.332;12.410;2023-10-08T10:54:31;7.70;;;4.00;;
34541;SDS011;20784;51.332;12.410;2023-10-08T10:57:26;7.75;;;3.55;;
34541;SDS011;20784;51.332;12.410;2023-10-08T11:00:27;10.02;;;3.92;;
34541;SDS011;20784;51.332;12.410;2023-10-08T11:03:38;6.00;;;3.43;;
34541;SDS011;20784;51.332;12.410;2023-10-08T11:09:52;6.80;;;3.03;;
34541;SDS011;20784;51.332;12.410;2023-10-08T11:12:44;10.85;;;2.90;;
34541;SDS011;20784;51.332;12.410;2023-10-08T11:15:22;6.63;;;2.88;;
34541;SDS011;20784;51.332;12.410;2023-10-08T11:18:08;8.63;;;2.80;;
34541;SDS011;20784;51.332;12.410;2023-10-08T11:28:10;9.88;;;3.38;;
34541;SDS011;20784;51.332;12.410;2023-10-08T11:31:01;5.13;;;2.92;;
34541;SDS011;20784;51.332;12.410;2023-10-08T11:34:10;8.43;;;2.83;;
34541;SDS011;20784;51.332;12.410;2023-10-08T11:39:53;6.47;;;3.00;;
34541;SDS011;20784;51.332;12.410;2023-10-08T11:42:49;6.93;;;2.88;;
34541;SDS011;20784;51.332;12.410;2023-10-08T11:45:41;7.07;;;2.45;;
34541;SDS011;20784;51.332;12.410;2023-10-08T11:48:53;6.60;;;2.53;;
34541;SDS011;20784;51.332;12.410;2023-10-08T11:58:30;4.20;;;1.65;;
34541;SDS011;20784;51.332;12.410;2023-10-08T12:04:07;4.55;;;1.80;;
34541;SDS011;20784;51.332;12.410;2023-10-08T12:10:16;13.63;;;2.93;;
34541;SDS011;20784;51.332;12.410;2023-10-08T12:16:25;4.57;;;2.20;;
34541;SDS011;20784;51.332;12.410;2023-10-08T12:19:14;6.47;;;2.05;;
34541;SDS011;20784;51.332;12.410;2023-10-08T12:22:09;4.65;;;2.25;;
34541;SDS011;20784;51.332;12.410;2023-10-08T12:24:45;6.63;;;2.60;;
34541;SDS011;20784;51.332;12.410;2023-10-08T12:27:40;4.03;;;2.15;;
34541;SDS011;20784;51.332;12.410;2023-10-08T12:30:12;6.22;;;2.17;;
34541;SDS011;20784;51.332;12.410;2023-10-08T12:32:57;4.93;;;1.88;;
34541;SDS011;20784;51.332;12.410;2023-10-08T12:35:31;6.68;;;2.22;;
34541;SDS011;20784;51.332;12.410;2023-10-08T12:37:57;10.32;;;2.65;;
34541;SDS011;20784;51.332;12.410;2023-10-08T12:40:30;8.10;;;2.38;;
34541;SDS011;20784;51.332;12.410;2023-10-08T12:43:16;4.35;;;2.08;;
34541;SDS011;20784;51.332;12.410;2023-10-08T12:46:06;3.78;;;1.90;;
34541;SDS011;20784;51.332;12.410;2023-10-08T12:48:43;7.60;;;2.08;;
34541;SDS011;20784;51.332;12.410;2023-10-08T12:51:20;5.68;;;2.00;;
34541;SDS011;20784;51.332;12.410;2023-10-08T12:54:08;4.60;;;2.15;;
34541;SDS011;20784;51.332;12.410;2023-10-08T12:56:43;5.75;;;2.10;;
34541;SDS011;20784;51.332;12.410;2023-10-08T12:59:28;8.00;;;2.40;;
34541;SDS011;20784;51.332;12.410;2023-10-08T13:02:06;8.48;;;2.65;;
34541;SDS011;20784;51.332;12.410;2023-10-08T13:04:38;6.72;;;2.30;;
34541;SDS011;20784;51.332;12.410;2023-10-08T13:07:46;4.50;;;2.20;;
34541;SDS011;20784;51.332;12.410;2023-10-08T13:10:19;10.07;;;3.60;;
34541;SDS011;20784;51.332;12.410;2023-10-08T13:12:56;8.15;;;2.33;;
34541;SDS011;20784;51.332;12.410;2023-10-08T13:15:25;7.15;;;2.42;;
34541;SDS011;20784;51.332;12.410;2023-10-08T13:18:00;7.25;;;2.28;;
34541;SDS011;20784;51.332;12.410;2023-10-08T13:20:52;6.85;;;2.20;;
34541;SDS011;20784;51.332;12.410;2023-10-08T13:23:41;6.00;;;2.30;;
34541;SDS011;20784;51.332;12.410;2023-10-08T13:29:51;7.45;;;2.80;;
34541;SDS011;20784;51.332;12.410;2023-10-08T13:32:19;7.55;;;2.22;;
34541;SDS011;20784;51.332;12.410;2023-10-08T13:34:54;5.57;;;2.13;;
34541;SDS011;20784;51.332;12.410;2023-10-08T13:37:53;5.97;;;2.38;;
34541;SDS011;20784;51.332;12.410;2023-10-08T13:40:24;7.97;;;2.58;;
34541;SDS011;20784;51.332;12.410;2023-10-08T13:42:58;5.15;;;2.30;;
34541;SDS011;20784;51.332;12.410;2023-10-08T13:45:27;5.32;;;2.20;;
34541;SDS011;20784;51.332;12.410;2023-10-08T13:47:54;2.70;;;1.77;;
34541;SDS011;20784;51.332;12.410;2023-10-08T13:50:27;7.22;;;1.98;;
34541;SDS011;20784;51.332;12.410;2023-10-08T13:53:02;4.72;;;2.20;;
34541;SDS011;20784;51.332;12.410;2023-10-08T13:58:47;3.47;;;1.60;;
34541;SDS011;20784;51.332;12.410;2023-10-08T14:01:31;4.30;;;1.88;;
34541;SDS011;20784;51.332;12.410;2023-10-08T14:04:10;3.83;;;1.70;;
34541;SDS011;20784;51.332;12.410;2023-10-08T14:06:39;3.00;;;1.75;;
34541;SDS011;20784;51.332;12.410;2023-10-08T14:09:12;7.13;;;2.72;;
34541;SDS011;20784;51.332;12.410;2023-10-08T14:11:56;5.88;;;2.20;;
34541;SDS011;20784;51.332;12.410;2023-10-08T14:14:28;5.95;;;2.15;;
34541;SDS011;20784;51.332;12.410;2023-10-08T14:17:04;4.35;;;2.38;;
34541;SDS011;20784;51.332;12.410;2023-10-08T14:19:35;7.38;;;2.30;;
34541;SDS011;20784;51.332;12.410;2023-10-08T14:22:08;5.50;;;2.45;;
34541;SDS011;20784;51.332;12.410;2023-10-08T14:24:39;7.88;;;3.40;;
34541;SDS011;20784;51.332;12.410;2023-10-08T14:27:11;4.97;;;2.72;;
34541;SDS011;20784;51.332;12.410;2023-10-08T14:29:40;7.20;;;2.50;;
34541;SDS011;20784;51.332;12.410;2023-10-08T14:32:16;5.75;;;2.78;;
34541;SDS011;20784;51.332;12.410;2023-10-08T14:34:52;7.30;;;2.60;;
34541;SDS011;20784;51.332;12.410;2023-10-08T14:37:45;11.45;;;2.70;;
34541;SDS011;20784;51.332;12.410;2023-10-08T14:40:33;3.42;;;1.98;;
34541;SDS011;20784;51.332;12.410;2023-10-08T14:43:20;5.03;;;2.35;;
34541;SDS011;20784;51.332;12.410;2023-10-08T14:45:49;5.18;;;2.20;;
34541;SDS011;20784;51.332;12.410;2023-10-08T14:48:21;3.58;;;2.28;;
34541;SDS011;20784;51.332;12.410;2023-10-08T14:51:06;5.28;;;2.40;;
34541;SDS011;20784;51.332;12.410;2023-10-08T14:53:44;6.90;;;2.70;;
34541;SDS011;20784;51.332;12.410;2023-10-08T14:59:54;5.55;;;2.42;;
34541;SDS011;20784;51.332;12.410;2023-10-08T15:02:36;6.53;;;2.47;;
34541;SDS011;20784;51.332;12.410;2023-10-08T15:05:19;4.15;;;2.10;;
34541;SDS011;20784;51.332;12.410;2023-10-08T15:11:33;6.45;;;2.50;;
34541;SDS011;20784;51.332;12.410;2023-10-08T15:14:23;4.65;;;2.30;;
34541;SDS011;20784;51.332;12.410;2023-10-08T15:20:02;8.65;;;2.22;;
34541;SDS011;20784;51.332;12.410;2023-10-08T15:25:49;6.85;;;2.38;;
34541;SDS011;20784;51.332;12.410;2023-10-08T15:28:21;5.60;;;2.10;;
34541;SDS011;20784;51.332;12.410;2023-10-08T15:30:59;11.52;;;2.80;;
34541;SDS011;20784;51.332;12.410;2023-10-08T15:33:39;5.70;;;2.15;;
34541;SDS011;20784;51.332;12.410;2023-10-08T15:36:12;6.13;;;2.13;;
34541;SDS011;20784;51.332;12.410;2023-10-08T15:56:31;7.53;;;2.60;;
34541;SDS011;20784;51.332;12.410;2023-10-08T16:05:25;8.23;;;3.15;;
34541;SDS011;20784;51.332;12.410;2023-10-08T16:08:20;9.38;;;3.25;;
34541;SDS011;20784;51.332;12.410;2023-10-08T16:11:02;7.47;;;3.50;;
34541;SDS011;20784;51.332;12.410;2023-10-08T16:16:41;6.00;;;3.40;;
34541;SDS011;20784;51.332;12.410;2023-10-08T16:22:54;6.97;;;3.63;;
34541;SDS011;20784;51.332;12.410;2023-10-08T16:26:11;12.40;;;4.00;;
34541;SDS011;20784;51.332;12.410;2023-10-08T16:32:24;8.55;;;3.35;;
34541;SDS011;20784;51.332;12.410;2023-10-08T16:35:12;6.80;;;3.80;;
34541;SDS011;20784;51.332;12.410;2023-10-08T16:41:17;11.00;;;4.75;;
34541;SDS011;20784;51.332;12.410;2023-10-08T16:44:01;10.18;;;3.65;;
34541;SDS011;20784;51.332;12.410;2023-10-08T16:46:36;5.75;;;3.58;;
34541;SDS011;20784;51.332;12.410;2023-10-08T16:49:19;7.67;;;4.40;;
34541;SDS011;20784;51.332;12.410;2023-10-08T16:52:25;5.68;;;3.70;;
34541;SDS011;20784;51.332;12.410;2023-10-08T16:55:00;8.93;;;3.53;;
34541;SDS011;20784;51.332;12.410;2023-10-08T16:57:29;12.13;;;4.00;;
34541;SDS011;20784;51.332;12.410;2023-10-08T17:00:21;6.80;;;3.50;;
34541;SDS011;20784;51.332;12.410;2023-10-08T17:03:27;5.80;;;3.63;;
34541;SDS011;20784;51.332;12.410;2023-10-08T17:08:57;10.70;;;4.00;;
34541;SDS011;20784;51.332;12.410;2023-10-08T17:11:23;5.88;;;3.97;;
34541;SDS011;20784;51.332;12.410;2023-10-08T17:13:54;5.93;;;3.45;;
34541;SDS011;20784;51.332;12.410;2023-10-08T17:16:37;6.97;;;4.07;;
34541;SDS011;20784;51.332;12.410;2023-10-08T17:19:08;8.77;;;4.82;;
34541;SDS011;20784;51.332;12.410;2023-10-08T17:21:42;14.18;;;7.47;;
34541;SDS011;20784;51.332;12.410;2023-10-08T17:24:08;10.07;;;5.22;;
34541;SDS011;20784;51.332;12.410;2023-10-08T17:26:34;6.43;;;3.25;;
34541;SDS011;20784;51.332;12.410;2023-10-08T17:29:05;9.30;;;4.03;;
34541;SDS011;20784;51.332;12.410;2023-10-08T17:31:31;7.82;;;4.03;;
34541;SDS011;20784;51.332;12.410;2023-10-08T17:34:13;8.07;;;3.85;;
34541;SDS011;20784;51.332;12.410;2023-10-08T17:36:48;12.10;;;4.30;;
34541;SDS011;20784;51.332;12.410;2023-10-08T17:39:17;7.88;;;3.70;;
34541;SDS011;20784;51.332;12.410;2023-10-08T17:41:43;8.45;;;3.70;;
34541;SDS011;20784;51.332;12.410;2023-10-08T17:44:18;6.55;;;4.10;;
34541;SDS011;20784;51.332;12.410;2023-10-08T17:46:52;8.10;;;3.80;;
34541;SDS011;20784;51.332;12.410;2023-10-08T17:49:31;7.95;;;3.65;;
34541;SDS011;20784;51.332;12.410;2023-10-08T17:55:01;6.95;;;3.42;;
34541;SDS011;20784;51.332;12.410;2023-10-08T17:57:45;6.95;;;3.85;;
34541;SDS011;20784;51.332;12.410;2023-10-08T18:04:25;8.40;;;3.78;;
34541;SDS011;20784;51.332;12.410;2023-10-08T18:14:18;10.20;;;4.10;;
34541;SDS011;20784;51.332;12.410;2023-10-08T18:17:36;8.80;;;3.40;;
34541;SDS011;20784;51.332;12.410;2023-10-08T18:24:28;6.72;;;3.15;;
34541;SDS011;20784;51.332;12.410;2023-10-08T20:18:51;12.65;;;3.60;;
34541;SDS011;20784;51.332;12.410;2023-10-08T20:24:37;9.27;;;2.67;;
34541;SDS011;20784;51.332;12.410;2023-10-08T20:31:17;7.90;;;2.60;;
34541;SDS011;20784;51.332;12.410;2023-10-08T20:34:22;8.13;;;2.60;;
34541;SDS011;20784;51.332;12.410;2023-10-08T20:44:53;6.40;;;2.30;;
34541;SDS011;20784;51.332;12.410;2023-10-08T20:55:01;9.82;;;2.63;;
34541;SDS011;20784;51.332;12.410;2023-10-08T22:14:33;10.85;;;4.60;;
34541;SDS011;20784;51.332;12.410;2023-10-08T22:17:53;7.55;;;4.05;;
34541;SDS011;20784;51.332;12.410;2023-10-08T22:21:21;6.35;;;3.97;;
34541;SDS011;20784;51.332;12.410;2023-10-08T22:28:02;6.40;;;3.92;;
34541;SDS011;20784;51.332;12.410;2023-10-08T22:38:07;6.45;;;3.75;;
34541;SDS011;20784;51.332;12.410;2023-10-08T22:45:16;8.25;;;4.32;;
34541;SDS011;20784;51.332;12.410;2023-10-08T22:48:26;6.20;;;4.28;;
34541;SDS011;20784;51.332;12.410;2023-10-08T23:49:58;6.20;;;3.17;;
34541;SDS011;20784;51.332;12.410;2023-10-08T23:53:03;4.72;;;3.08;;
34541;SDS011;20784;51.332;12.410;2023-10-08T23:56:10;7.57;;;3.25;;
34541;SDS011;20784;51.332;12.410;2023-10-08T23:59:10;7.10;;;3.30;;
